Time,TemperatureF,DewpointF,PressureIn,WindDirection,WindDirectionDegrees,WindSpeedMPH,WindSpeedGustMPH,Humidity,HourlyPrecipIn,Conditions,Clouds,dailyrainin,SoftwareType,DateUTC
2013-05-08 07:02:00,58.8,55.9,29.97,ESE,113,0.0,0.0,90,0.00,,,0.00,WUHU216HW,2013-05-08 05:02:00,
2013-05-08 07:07:00,59.1,56.3,29.97,ESE,113,0.0,0.0,90,0.00,,,0.00,WUHU216HW,2013-05-08 05:07:00,
2013-05-08 07:12:00,59.5,56.6,29.97,SE,135,0.0,0.0,90,0.00,,,0.00,WUHU216HW,2013-05-08 05:12:00,
2013-05-08 07:17:00,60.0,57.2,29.98,ESE,113,0.0,0.0,90,0.00,,,0.00,WUHU216HW,2013-05-08 05:17:00,
2013-05-08 07:22:00,60.4,57.5,29.99,West,270,0.0,0.0,90,0.00,,,0.00,WUHU216HW,2013-05-08 05:22:00,
2013-05-08 07:27:00,60.9,58.3,29.99,NW,315,2.4,3.8,91,0.00,,,0.00,WUHU216HW,2013-05-08 05:27:00,
2013-05-08 07:32:00,61.3,58.4,29.99,NNW,338,2.6,3.8,90,0.00,,,0.00,WUHU216HW,2013-05-08 05:32:00,
2013-05-08 07:37:00,61.8,59.0,29.99,NNW,338,2.4,4.0,90,0.00,,,0.00,WUHU216HW,2013-05-08 05:37:00,
2013-05-08 07:42:00,62.6,59.7,30.00,WNW,293,4.2,6.4,90,0.00,,,0.00,WUHU216HW,2013-05-08 05:42:00,
2013-05-08 07:47:00,63.3,60.0,30.01,SSE,158,0.0,6.4,89,0.00,,,0.00,WUHU216HW,2013-05-08 05:47:00,
2013-05-08 07:52:00,64.0,60.4,30.02,SSW,203,0.0,3.5,88,0.00,,,0.00,WUHU216HW,2013-05-08 05:52:00,
2013-05-08 07:57:00,64.0,60.1,30.02,WSW,248,0.0,2.6,87,0.00,,,0.00,WUHU216HW,2013-05-08 05:57:00,
2013-05-08 08:02:00,63.8,59.9,30.03,NW,315,2.4,2.6,87,0.00,,,0.00,WUHU216HW,2013-05-08 06:02:00,
2013-05-08 08:07:00,63.6,59.4,30.03,West,270,2.2,2.9,86,0.00,,,0.00,WUHU216HW,2013-05-08 06:07:00,
2013-05-08 08:12:00,63.3,59.0,30.03,West,270,0.0,2.9,86,0.00,,,0.00,WUHU216HW,2013-05-08 06:12:00,
2013-05-08 08:17:00,63.1,58.8,30.04,WSW,248,0.0,2.9,86,0.00,,,0.00,WUHU216HW,2013-05-08 06:17:00,
2013-05-08 08:33:00,61.8,57.6,30.06,SSW,203,0.0,0.0,86,0.04,,,0.00,WUHU216HW,2013-05-08 06:33:00,
2013-05-08 13:04:00,73.7,63.0,29.99,SW,225,0.0,0.0,69,0.00,,,0.08,WUHU216HW,2013-05-08 11:04:00,
2013-05-08 13:09:00,73.2,62.5,29.99,West,270,0.0,0.8,69,0.00,,,0.10,WUHU216HW,2013-05-08 11:09:00,
2013-05-08 13:14:00,74.8,63.2,29.99,ENE,68,2.0,2.0,68,0.00,,,0.10,WUHU216HW,2013-05-08 11:14:00,
2013-05-08 13:19:00,75.3,62.7,29.99,NNW,338,0.0,3.1,65,0.00,,,0.10,WUHU216HW,2013-05-08 11:19:00,
2013-05-08 13:24:00,75.0,62.4,30.00,East,90,0.0,5.8,65,0.00,,,0.10,WUHU216HW,2013-05-08 11:24:00,
2013-05-08 13:29:00,73.5,61.2,30.01,NNE,23,0.0,5.8,65,0.00,,,0.10,WUHU216HW,2013-05-08 11:29:00,
2013-05-08 13:34:00,74.3,63.2,30.01,ESE,113,0.0,3.3,68,0.00,,,0.10,WUHU216HW,2013-05-08 11:34:00,
2013-05-08 13:39:00,75.3,62.7,30.02,NNW,338,0.0,3.3,65,0.00,,,0.10,WUHU216HW,2013-05-08 11:39:00,
2013-05-08 13:44:00,74.8,61.3,30.02,NE,45,2.4,2.4,63,0.00,,,0.10,WUHU216HW,2013-05-08 11:44:00,
2013-05-08 13:49:00,74.3,61.3,30.02,SE,135,0.0,2.4,64,0.00,,,0.10,WUHU216HW,2013-05-08 11:49:00,
2013-05-08 13:54:00,74.1,60.6,30.03,NE,45,0.0,0.0,63,0.00,,,0.10,WUHU216HW,2013-05-08 11:54:00,
2013-05-08 13:59:00,73.5,60.6,30.03,SSE,158,0.0,2.2,64,0.00,,,0.10,WUHU216HW,2013-05-08 11:59:00,
2013-05-08 14:04:00,74.4,62.3,30.03,ESE,113,2.4,3.3,66,0.00,,,0.10,WUHU216HW,2013-05-08 12:04:00,
2013-05-08 14:09:00,75.7,61.7,30.04,East,90,0.0,3.3,62,0.00,,,0.10,WUHU216HW,2013-05-08 12:09:00,
2013-05-08 14:14:00,75.9,61.5,30.04,East,90,0.0,2.4,63,0.00,,,0.10,WUHU216HW,2013-05-08 12:14:00,
2013-05-08 14:19:00,75.0,60.2,30.03,SE,135,0.0,2.4,60,0.00,,,0.10,WUHU216HW,2013-05-08 12:19:00,
2013-05-08 21:18:00,60.6,54.8,29.99,WNW,293,0.0,0.0,81,0.00,,,0.10,WUHU216HW,2013-05-08 19:18:00,
2013-05-08 21:23:00,60.6,54.8,29.99,WNW,293,0.0,0.0,81,0.00,,,0.10,WUHU216HW,2013-05-08 19:23:00,
2013-05-08 21:28:00,60.6,55.1,30.00,WNW,293,0.0,0.0,82,0.00,,,0.10,WUHU216HW,2013-05-08 19:28:00,
2013-05-08 21:33:00,60.4,55.2,30.02,NW,315,0.0,0.0,83,0.00,,,0.10,WUHU216HW,2013-05-08 19:33:00,